createdAt,value
2019-05-25T00:00:01.043Z,73.90
2019-05-25T00:00:40.079Z,74.90
2019-05-25T00:01:19.271Z,76.40
2019-05-25T00:01:59.308Z,77.60
2019-05-25T00:02:38.264Z,78.10
2019-05-25T00:03:18.164Z,79.10
2019-05-25T00:03:57.679Z,80.00
2019-05-25T00:04:36.175Z,80.20
2019-05-25T00:05:15.723Z,81.00
2019-05-25T00:05:55.210Z,81.40
2019-05-25T00:06:34.103Z,80.00
2019-05-25T00:07:13.751Z,78.30
2019-05-25T00:07:53.667Z,77.10
2019-05-25T00:08:32.371Z,76.10
2019-05-25T00:09:12.684Z,74.90
2019-05-25T00:09:52.888Z,74.50
2019-05-25T00:10:32.679Z,73.70
2019-05-25T00:11:12.102Z,74.60
2019-05-25T00:11:51.617Z,75.30
2019-05-25T00:12:30.887Z,77.60
2019-05-25T00:13:10.583Z,78.90
2019-05-25T00:13:49.864Z,80.00
2019-05-25T00:14:28.533Z,81.50
2019-05-25T00:15:08.104Z,82.40
2019-05-25T00:15:47.408Z,83.00
2019-05-25T00:16:26.407Z,84.30
2019-05-25T00:17:05.909Z,85.20
2019-05-25T00:17:45.496Z,85.40
2019-05-25T00:18:24.634Z,81.70
2019-05-25T00:19:03.936Z,80.40
2019-05-25T00:19:44.051Z,78.70
2019-05-25T00:20:29.036Z,77.50
2019-05-25T00:21:09.256Z,76.50
2019-05-25T00:21:48.671Z,75.40
2019-05-25T00:22:33.311Z,75.10
2019-05-25T00:23:12.698Z,75.40
2019-05-25T00:23:52.305Z,75.90
2019-05-25T00:24:34.835Z,78.10
2019-05-25T00:25:13.860Z,79.00
2019-05-25T00:25:53.762Z,80.00
2019-05-25T00:26:33.193Z,81.30
2019-05-25T00:27:12.708Z,82.10
2019-05-25T00:27:52.060Z,82.80
2019-05-25T00:28:30.569Z,82.80
2019-05-25T00:29:10.167Z,83.20
2019-05-25T00:29:49.584Z,83.50
2019-05-25T00:30:28.427Z,80.60
2019-05-25T00:31:08.125Z,79.80
2019-05-25T00:31:54.289Z,78.40
2019-05-25T00:32:33.054Z,77.40
2019-05-25T00:33:12.435Z,76.50
2019-05-25T00:33:52.102Z,76.50
2019-05-25T00:34:31.492Z,74.90
2019-05-25T00:35:29.266Z,74.30
2019-05-25T00:36:10.460Z,73.20
2019-05-25T00:36:49.609Z,74.20
2019-05-25T00:37:29.237Z,75.40
2019-05-25T00:38:08.387Z,76.80
2019-05-25T00:38:47.660Z,77.90
2019-05-25T00:39:27.132Z,79.80
2019-05-25T00:40:06.170Z,81.60
2019-05-25T00:40:45.773Z,82.60
2019-05-25T00:41:25.644Z,83.70
2019-05-25T00:42:05.334Z,81.00
2019-05-25T00:42:45.115Z,79.40
2019-05-25T00:43:24.752Z,78.40
2019-05-25T00:44:04.310Z,77.20
2019-05-25T00:44:43.178Z,76.30
2019-05-25T00:45:22.999Z,75.90
2019-05-25T00:46:02.912Z,75.40
2019-05-25T00:46:42.039Z,75.10
2019-05-25T00:47:22.258Z,74.90
2019-05-25T00:48:19.727Z,74.50
2019-05-25T00:48:58.883Z,73.70
2019-05-25T00:49:38.466Z,73.10
2019-05-25T00:50:18.202Z,72.90
2019-05-25T00:50:57.451Z,72.20
2019-05-25T00:51:36.843Z,71.50
2019-05-25T00:52:16.471Z,71.40
2019-05-25T00:52:54.901Z,70.10
2019-05-25T00:53:34.524Z,70.00
2019-05-25T00:54:27.034Z,69.20
2019-05-25T00:54:54.807Z,68.90
2019-05-25T00:55:34.232Z,68.60
2019-05-25T00:56:13.187Z,70.00
2019-05-25T00:56:51.958Z,69.60
2019-05-25T00:57:38.954Z,70.30
2019-05-25T00:58:19.042Z,73.70
2019-05-25T00:58:57.911Z,75.10
2019-05-25T00:59:37.362Z,75.40
2019-05-25T01:00:20.736Z,75.30
2019-05-25T01:00:59.681Z,75.00
2019-05-25T01:01:39.319Z,74.80
2019-05-25T01:02:19.154Z,74.60
2019-05-25T01:02:58.259Z,74.20
2019-05-25T01:03:37.419Z,74.00
2019-05-25T01:04:16.342Z,73.90
2019-05-25T01:04:55.766Z,73.60
2019-05-25T01:05:35.422Z,73.40
2019-05-25T01:06:15.266Z,73.40
2019-05-25T01:06:54.615Z,73.10
2019-05-25T01:07:51.929Z,73.10
2019-05-25T01:08:32.399Z,73.00
2019-05-25T01:09:11.808Z,73.10
2019-05-25T01:09:51.743Z,73.10
2019-05-25T01:10:31.162Z,73.00
2019-05-25T01:11:10.784Z,73.20
2019-05-25T01:11:50.382Z,73.30
2019-05-25T01:12:30.063Z,73.40
2019-05-25T01:13:09.064Z,73.40
2019-05-25T01:13:48.647Z,73.40
2019-05-25T01:14:28.063Z,73.60
2019-05-25T01:15:08.219Z,73.70
2019-05-25T01:15:47.735Z,73.60
2019-05-25T01:16:27.194Z,73.30
2019-05-25T01:17:06.123Z,73.60
2019-05-25T01:17:45.801Z,73.70
2019-05-25T01:18:28.171Z,73.70
2019-05-25T01:19:07.238Z,73.70
2019-05-25T01:19:46.411Z,73.80
2019-05-25T01:20:25.977Z,74.10
2019-05-25T01:21:09.087Z,73.80
2019-05-25T01:21:48.504Z,74.20
2019-05-25T01:22:27.831Z,74.20
2019-05-25T01:23:19.675Z,74.20
2019-05-25T01:23:59.158Z,74.40
2019-05-25T01:24:44.728Z,74.50
2019-05-25T01:25:22.879Z,74.40
2019-05-25T01:26:02.150Z,75.00
2019-05-25T01:26:48.129Z,74.70
2019-05-25T01:27:28.815Z,75.70
2019-05-25T01:28:08.032Z,75.80
2019-05-25T01:28:47.843Z,75.00
2019-05-25T01:29:26.759Z,76.00
2019-05-25T01:30:06.516Z,75.20
2019-05-25T01:30:46.006Z,75.30
2019-05-25T01:31:24.753Z,75.30
2019-05-25T01:32:04.552Z,75.70
2019-05-25T01:32:44.189Z,75.50
2019-05-25T01:33:23.839Z,75.60
2019-05-25T01:34:05.572Z,75.60
2019-05-25T01:34:46.345Z,75.90
2019-05-25T01:35:25.871Z,76.10
2019-05-25T01:36:05.207Z,76.20
2019-05-25T01:36:44.920Z,76.40
2019-05-25T01:37:23.736Z,76.40
2019-05-25T01:38:03.169Z,76.70
2019-05-25T01:38:42.907Z,76.50
2019-05-25T01:39:26.432Z,76.70
2019-05-25T01:40:05.665Z,76.60
2019-05-25T01:40:54.016Z,76.70
2019-05-25T01:41:33.093Z,76.80
2019-05-25T01:42:13.622Z,76.90
2019-05-25T01:42:53.363Z,77.00
2019-05-25T01:43:32.311Z,77.40
2019-05-25T01:44:13.309Z,77.20
2019-05-25T01:44:52.365Z,77.20
2019-05-25T01:45:31.154Z,77.20
2019-05-25T01:46:10.907Z,77.40
2019-05-25T01:46:50.455Z,77.80
2019-05-25T01:47:31.444Z,77.70
2019-05-25T01:48:11.095Z,77.50
2019-05-25T01:48:50.769Z,77.60
2019-05-25T01:49:29.597Z,77.50
2019-05-25T01:50:09.265Z,77.90
2019-05-25T01:50:49.583Z,78.00
2019-05-25T01:51:29.099Z,78.20
2019-05-25T01:52:08.547Z,78.50
2019-05-25T01:52:48.399Z,78.60
2019-05-25T01:53:29.474Z,78.70
2019-05-25T01:54:08.937Z,78.60
2019-05-25T01:54:59.482Z,78.80
2019-05-25T01:55:29.598Z,78.90
2019-05-25T01:56:09.519Z,78.90
2019-05-25T01:56:48.881Z,79.40
2019-05-25T01:57:27.808Z,79.80
2019-05-25T01:58:07.215Z,80.10
2019-05-25T01:58:46.819Z,80.60
2019-05-25T01:59:26.206Z,81.50
2019-05-25T02:00:08.254Z,81.00
2019-05-25T02:00:48.551Z,81.20
2019-05-25T02:01:27.838Z,81.20
2019-05-25T02:02:08.023Z,82.10
2019-05-25T02:02:47.354Z,82.10
2019-05-25T02:03:26.302Z,82.20
2019-05-25T02:04:06.266Z,82.30
2019-05-25T02:04:45.844Z,82.60
2019-05-25T02:05:24.571Z,82.50
2019-05-25T02:06:04.136Z,82.60
2019-05-25T02:06:43.421Z,82.80
2019-05-25T02:07:22.232Z,82.90
2019-05-25T02:08:04.228Z,83.00
2019-05-25T02:08:43.803Z,83.80
2019-05-25T02:09:22.653Z,83.60
2019-05-25T02:10:02.015Z,84.10
2019-05-25T02:10:41.271Z,85.70
2019-05-25T02:11:20.305Z,84.90
2019-05-25T02:11:59.924Z,84.80
2019-05-25T02:12:40.029Z,85.10
2019-05-25T02:13:19.100Z,85.00
2019-05-25T02:13:58.729Z,85.20
2019-05-25T02:14:37.715Z,85.20
2019-05-25T02:15:16.849Z,85.10
2019-05-25T02:15:56.139Z,86.20
2019-05-25T02:16:35.667Z,86.90
2019-05-25T02:17:14.516Z,86.90
2019-05-25T02:17:53.900Z,87.20
2019-05-25T02:18:33.636Z,88.00
2019-05-25T02:19:12.748Z,88.90
2019-05-25T02:19:51.788Z,87.80
2019-05-25T02:20:31.303Z,88.00
2019-05-25T02:21:10.731Z,88.00
2019-05-25T02:21:50.136Z,88.30
2019-05-25T02:22:29.566Z,88.30
2019-05-25T02:23:08.231Z,89.40
2019-05-25T02:23:47.936Z,89.00
2019-05-25T02:24:27.599Z,89.60
2019-05-25T02:25:16.981Z,89.90
2019-05-25T02:25:47.902Z,90.10
2019-05-25T02:26:27.252Z,90.00
2019-05-25T02:27:06.166Z,90.30
2019-05-25T02:27:45.368Z,90.10
2019-05-25T02:28:24.801Z,90.20
2019-05-25T02:29:04.184Z,90.20
2019-05-25T02:29:43.463Z,90.80
2019-05-25T02:30:24.047Z,90.80
2019-05-25T02:31:02.943Z,90.70
2019-05-25T02:31:43.021Z,90.80
2019-05-25T02:32:23.371Z,90.80
2019-05-25T02:33:02.318Z,90.80
2019-05-25T02:33:41.496Z,91.10
2019-05-25T02:34:20.520Z,91.10
2019-05-25T02:34:59.487Z,91.20
2019-05-25T02:35:40.084Z,91.20
2019-05-25T02:36:20.887Z,91.10
2019-05-25T02:36:59.828Z,91.20
2019-05-25T02:37:38.843Z,91.40
2019-05-25T02:38:18.411Z,91.10
2019-05-25T02:38:57.158Z,91.50
2019-05-25T02:39:36.327Z,91.70
2019-05-25T02:40:15.452Z,91.70
2019-05-25T02:40:54.370Z,91.90
2019-05-25T02:41:33.580Z,91.90
2019-05-25T02:42:13.216Z,92.00
2019-05-25T02:42:52.171Z,92.20
2019-05-25T02:43:31.772Z,92.10
2019-05-25T02:44:11.212Z,92.10
2019-05-25T02:44:50.540Z,92.30
2019-05-25T02:45:30.235Z,92.40
2019-05-25T02:46:09.548Z,92.50
2019-05-25T02:46:48.544Z,92.60
2019-05-25T02:47:28.086Z,93.00
2019-05-25T02:48:07.639Z,92.70
2019-05-25T02:48:46.504Z,92.80
2019-05-25T02:49:26.394Z,92.90
2019-05-25T02:50:06.223Z,93.00
2019-05-25T02:50:45.148Z,93.10
2019-05-25T02:51:24.163Z,93.10
2019-05-25T02:52:03.898Z,92.90
2019-05-25T02:52:42.879Z,93.20
2019-05-25T02:53:22.639Z,93.40
2019-05-25T02:54:02.115Z,93.30
2019-05-25T02:54:41.099Z,93.30
2019-05-25T02:55:33.911Z,93.40
2019-05-25T02:56:01.727Z,93.20
2019-05-25T02:56:40.687Z,93.50
2019-05-25T02:57:19.860Z,93.50
2019-05-25T02:57:59.407Z,93.80
2019-05-25T02:58:38.441Z,94.00
2019-05-25T02:59:18.042Z,93.80
2019-05-25T02:59:57.412Z,94.10
2019-05-25T03:00:36.632Z,94.00
2019-05-25T03:01:16.415Z,94.50
2019-05-25T03:01:55.435Z,94.50
2019-05-25T03:02:34.040Z,94.60
2019-05-25T03:03:13.479Z,94.50
2019-05-25T03:03:53.162Z,94.70
2019-05-25T03:04:32.154Z,94.60
2019-05-25T03:05:13.876Z,94.90
2019-05-25T03:05:53.798Z,95.30
2019-05-25T03:06:32.865Z,95.50
2019-05-25T03:07:12.335Z,95.50
2019-05-25T03:07:51.792Z,95.50
2019-05-25T03:08:30.743Z,95.60
2019-05-25T03:09:10.576Z,95.80
2019-05-25T03:09:49.923Z,95.60
2019-05-25T03:10:29.036Z,95.50
2019-05-25T03:11:08.591Z,95.50
2019-05-25T03:11:47.587Z,95.60
2019-05-25T03:12:26.755Z,95.60
2019-05-25T03:13:06.507Z,95.80
2019-05-25T03:13:46.239Z,95.60
2019-05-25T03:14:24.938Z,95.80
2019-05-25T03:15:04.649Z,95.70
2019-05-25T03:15:44.220Z,95.80
2019-05-25T03:16:22.797Z,95.80
2019-05-25T03:17:04.969Z,96.10
2019-05-25T03:17:44.551Z,96.10
2019-05-25T03:18:23.857Z,96.00
2019-05-25T03:19:04.437Z,96.10
2019-05-25T03:19:43.686Z,96.20
2019-05-25T03:20:22.411Z,96.10
2019-05-25T03:21:02.204Z,96.10
2019-05-25T03:21:42.008Z,96.10
2019-05-25T03:22:21.204Z,96.10
2019-05-25T03:23:00.487Z,96.10
2019-05-25T03:23:39.650Z,96.00
2019-05-25T03:24:18.012Z,96.20
2019-05-25T03:24:57.758Z,96.20
2019-05-25T03:25:49.151Z,96.50
2019-05-25T03:26:23.762Z,96.50
2019-05-25T03:27:03.260Z,96.50
2019-05-25T03:27:42.787Z,96.50
2019-05-25T03:28:22.242Z,96.40
2019-05-25T03:29:01.759Z,96.50
2019-05-25T03:29:41.563Z,96.40
2019-05-25T03:30:28.948Z,96.40
2019-05-25T03:31:08.399Z,96.30
2019-05-25T03:31:47.532Z,96.40
2019-05-25T03:32:25.955Z,96.10
2019-05-25T03:33:11.012Z,96.10
2019-05-25T03:33:58.600Z,96.20
2019-05-25T03:34:37.455Z,96.40
2019-05-25T03:35:28.272Z,96.30
2019-05-25T03:36:15.408Z,96.30
2019-05-25T03:37:14.024Z,96.60
2019-05-25T03:37:53.398Z,96.60
2019-05-25T03:38:32.854Z,96.40
2019-05-25T03:39:15.763Z,96.80
2019-05-25T03:39:55.159Z,96.80
2019-05-25T03:40:34.791Z,96.90
2019-05-25T03:41:13.963Z,96.80
2019-05-25T03:42:02.148Z,96.70
2019-05-25T03:42:42.995Z,96.70
2019-05-25T03:43:21.851Z,97.00
2019-05-25T03:44:01.335Z,96.90
2019-05-25T03:44:40.579Z,97.30
2019-05-25T03:45:24.327Z,97.00
2019-05-25T03:46:03.811Z,97.30
2019-05-25T03:46:45.431Z,97.40
2019-05-25T03:47:24.025Z,97.00
2019-05-25T03:48:03.427Z,96.80
2019-05-25T03:48:42.839Z,97.20
2019-05-25T03:49:21.816Z,97.30
2019-05-25T03:50:01.391Z,97.50
2019-05-25T03:50:40.598Z,97.30
2019-05-25T03:51:19.139Z,97.60
2019-05-25T03:52:03.763Z,97.30
2019-05-25T03:52:43.087Z,97.10
2019-05-25T03:53:22.507Z,97.40
2019-05-25T03:54:01.799Z,97.60
2019-05-25T03:54:41.324Z,97.60
2019-05-25T03:55:20.408Z,97.60
2019-05-25T03:56:06.057Z,97.50
2019-05-25T03:56:40.844Z,97.70
2019-05-25T03:57:26.760Z,97.60
2019-05-25T03:58:06.031Z,97.10
2019-05-25T03:58:45.175Z,97.50
2019-05-25T03:59:25.116Z,97.30
2019-05-25T04:00:04.435Z,97.70
2019-05-25T04:00:44.658Z,97.60
2019-05-25T04:01:23.611Z,97.60
2019-05-25T04:02:02.809Z,97.50
2019-05-25T04:02:42.309Z,97.60
2019-05-25T04:03:21.493Z,97.50
2019-05-25T04:04:01.595Z,97.60
2019-05-25T04:04:41.846Z,97.50
2019-05-25T04:05:21.387Z,97.70
2019-05-25T04:06:01.270Z,97.50
2019-05-25T04:06:41.364Z,97.30
2019-05-25T04:07:19.884Z,97.50
2019-05-25T04:07:58.947Z,97.60
2019-05-25T04:08:38.700Z,97.60
2019-05-25T04:09:18.259Z,97.60
2019-05-25T04:10:05.764Z,97.70
2019-05-25T04:10:45.347Z,97.70
2019-05-25T04:11:24.472Z,97.60
2019-05-25T04:12:04.079Z,97.70
2019-05-25T04:12:43.420Z,97.70
2019-05-25T04:13:22.330Z,97.60
2019-05-25T04:14:01.620Z,97.50
2019-05-25T04:14:41.043Z,97.80
2019-05-25T04:15:19.771Z,97.70
2019-05-25T04:15:59.323Z,97.80
2019-05-25T04:16:38.621Z,98.00
2019-05-25T04:17:17.700Z,98.00
2019-05-25T04:17:57.037Z,98.10
2019-05-25T04:18:36.487Z,98.10
2019-05-25T04:19:15.564Z,98.00
2019-05-25T04:19:55.180Z,98.10
2019-05-25T04:20:34.930Z,98.10
2019-05-25T04:21:14.111Z,98.40
2019-05-25T04:21:53.111Z,98.20
2019-05-25T04:22:32.849Z,98.30
2019-05-25T04:23:11.930Z,98.30
2019-05-25T04:23:51.728Z,98.20
2019-05-25T04:24:31.470Z,98.30
2019-05-25T04:25:10.907Z,98.40
2019-05-25T04:25:55.596Z,98.20
2019-05-25T04:26:35.640Z,98.60
2019-05-25T04:27:15.384Z,98.70
2019-05-25T04:27:54.915Z,98.70
2019-05-25T04:28:34.521Z,98.60
2019-05-25T04:29:13.563Z,98.70
2019-05-25T04:29:52.546Z,98.70
2019-05-25T04:30:32.215Z,98.50
2019-05-25T04:31:11.348Z,98.50
2019-05-25T04:31:51.667Z,98.60
2019-05-25T04:32:31.295Z,98.60
2019-05-25T04:33:10.336Z,98.50
2019-05-25T04:33:53.527Z,98.70
2019-05-25T04:34:32.837Z,98.80
2019-05-25T04:35:11.999Z,98.80
2019-05-25T04:35:51.547Z,98.80
2019-05-25T04:36:30.683Z,98.80
2019-05-25T04:37:09.758Z,98.70
2019-05-25T04:37:52.790Z,98.90
2019-05-25T04:38:32.351Z,98.80
2019-05-25T04:39:12.247Z,98.80
2019-05-25T04:39:51.830Z,98.70
2019-05-25T04:40:31.182Z,98.60
2019-05-25T04:41:10.561Z,98.60
2019-05-25T04:41:50.163Z,98.70
2019-05-25T04:42:29.314Z,98.70
2019-05-25T04:43:08.522Z,98.60
2019-05-25T04:43:47.709Z,98.70
2019-05-25T04:44:27.042Z,98.70
2019-05-25T04:45:06.462Z,98.60
2019-05-25T04:45:45.939Z,98.40
2019-05-25T04:46:25.519Z,98.50
2019-05-25T04:47:04.482Z,98.50
2019-05-25T04:47:44.547Z,98.40
2019-05-25T04:48:23.802Z,98.40
2019-05-25T04:49:02.415Z,98.50
2019-05-25T04:49:41.622Z,98.40
2019-05-25T04:50:21.060Z,98.30
2019-05-25T04:51:00.047Z,98.30
2019-05-25T04:51:39.731Z,98.30
2019-05-25T04:52:22.313Z,98.10
2019-05-25T04:53:00.911Z,98.20
2019-05-25T04:53:40.232Z,98.30
2019-05-25T04:54:19.643Z,98.30
2019-05-25T04:55:04.447Z,98.40
2019-05-25T04:55:44.107Z,98.30
2019-05-25T04:56:38.207Z,98.30
2019-05-25T04:57:04.710Z,98.40
2019-05-25T04:57:44.164Z,98.40
2019-05-25T04:58:23.963Z,98.30
2019-05-25T04:59:03.018Z,98.40
2019-05-25T04:59:42.479Z,98.40
2019-05-25T05:00:22.138Z,98.30
2019-05-25T05:01:01.220Z,98.30
2019-05-25T05:01:40.466Z,98.30
2019-05-25T05:02:26.735Z,98.30
2019-05-25T05:03:05.605Z,98.30
2019-05-25T05:03:45.129Z,98.30
2019-05-25T05:04:27.183Z,98.20
2019-05-25T05:05:08.262Z,98.20
2019-05-25T05:05:47.569Z,98.10
2019-05-25T05:06:27.048Z,98.10
2019-05-25T05:07:05.924Z,98.30
2019-05-25T05:07:45.244Z,98.10
2019-05-25T05:08:25.075Z,98.10
2019-05-25T05:09:05.430Z,98.10
2019-05-25T05:09:45.643Z,98.00
2019-05-25T05:10:24.713Z,97.90
2019-05-25T05:11:03.608Z,97.70
2019-05-25T05:11:42.779Z,97.60
2019-05-25T05:12:22.241Z,97.70
2019-05-25T05:13:00.955Z,97.70
2019-05-25T05:13:40.142Z,97.60
2019-05-25T05:14:19.314Z,97.70
2019-05-25T05:14:58.604Z,97.60
2019-05-25T05:15:38.208Z,97.50
2019-05-25T05:16:17.736Z,97.60
2019-05-25T05:16:56.704Z,97.60
2019-05-25T05:17:36.552Z,97.50
2019-05-25T05:18:16.257Z,97.40
2019-05-25T05:19:01.383Z,97.60
2019-05-25T05:19:40.679Z,97.40
2019-05-25T05:20:20.108Z,97.50
2019-05-25T05:20:59.067Z,97.40
2019-05-25T05:21:38.322Z,97.40
2019-05-25T05:22:17.663Z,97.30
2019-05-25T05:22:56.848Z,97.30
2019-05-25T05:23:36.355Z,97.40
2019-05-25T05:24:16.156Z,97.20
2019-05-25T05:25:02.191Z,97.00
2019-05-25T05:25:48.976Z,97.10
2019-05-25T05:26:31.222Z,97.00
2019-05-25T05:27:10.191Z,97.30
2019-05-25T05:27:56.600Z,97.00
2019-05-25T05:28:35.831Z,96.90
2019-05-25T05:29:14.675Z,96.80
2019-05-25T05:30:04.669Z,96.80
2019-05-25T05:30:46.008Z,96.80
2019-05-25T05:31:24.551Z,96.70
2019-05-25T05:32:03.823Z,97.00
2019-05-25T05:32:46.319Z,96.50
2019-05-25T05:33:25.155Z,96.50
2019-05-25T05:34:05.050Z,96.60
2019-05-25T05:34:51.059Z,96.60
2019-05-25T05:35:38.737Z,96.60
2019-05-25T05:36:16.241Z,96.50
2019-05-25T05:36:55.864Z,96.60
2019-05-25T05:37:34.927Z,96.30
2019-05-25T05:38:14.139Z,96.90
2019-05-25T05:38:53.863Z,96.40
2019-05-25T05:39:32.806Z,96.50
2019-05-25T05:40:12.701Z,96.50
2019-05-25T05:40:52.100Z,96.40
2019-05-25T05:41:31.269Z,96.40
2019-05-25T05:42:10.867Z,96.30
2019-05-25T05:42:50.247Z,96.20
2019-05-25T05:43:31.215Z,96.40
2019-05-25T05:44:10.554Z,96.20
2019-05-25T05:44:50.071Z,96.20
2019-05-25T05:45:29.026Z,96.10
2019-05-25T05:46:08.527Z,96.20
2019-05-25T05:46:47.919Z,96.20
2019-05-25T05:47:27.131Z,96.20
2019-05-25T05:48:24.348Z,95.90
2019-05-25T05:49:05.770Z,96.10
2019-05-25T05:49:44.887Z,96.00
2019-05-25T05:50:24.514Z,95.80
2019-05-25T05:51:04.722Z,96.00
2019-05-25T05:51:49.667Z,95.80
2019-05-25T05:52:29.019Z,95.80
2019-05-25T05:53:08.982Z,95.70
2019-05-25T05:53:47.985Z,95.70
2019-05-25T05:54:27.523Z,95.70
2019-05-25T05:55:07.180Z,95.70
2019-05-25T05:55:54.472Z,95.70
2019-05-25T05:56:41.746Z,95.60
2019-05-25T05:57:29.631Z,95.50
2019-05-25T05:58:08.623Z,95.40
2019-05-25T05:59:08.039Z,95.50
2019-05-25T05:59:49.082Z,95.60
2019-05-25T06:00:27.691Z,95.60
2019-05-25T06:01:07.207Z,95.50
2019-05-25T06:01:46.951Z,95.50
2019-05-25T06:02:25.969Z,95.40
2019-05-25T06:03:05.143Z,95.20
2019-05-25T06:03:44.993Z,95.40
2019-05-25T06:04:23.820Z,95.20
2019-05-25T06:05:03.664Z,95.20
2019-05-25T06:05:43.297Z,95.40
2019-05-25T06:06:22.016Z,95.20
2019-05-25T06:07:01.582Z,95.20
2019-05-25T06:07:41.239Z,95.10
2019-05-25T06:08:20.663Z,95.10
2019-05-25T06:09:00.063Z,95.20
2019-05-25T06:09:39.487Z,95.00
2019-05-25T06:10:18.463Z,94.90
2019-05-25T06:10:57.926Z,94.90
2019-05-25T06:11:37.585Z,94.90
2019-05-25T06:12:16.194Z,94.90
2019-05-25T06:12:55.455Z,95.00
2019-05-25T06:13:34.939Z,95.00
2019-05-25T06:14:13.760Z,94.90
2019-05-25T06:14:58.987Z,94.80
2019-05-25T06:15:38.619Z,94.60
2019-05-25T06:16:17.583Z,94.60
2019-05-25T06:16:57.592Z,94.70
2019-05-25T06:17:37.131Z,94.70
2019-05-25T06:18:16.368Z,94.70
2019-05-25T06:18:55.731Z,94.70
2019-05-25T06:19:36.019Z,94.60
2019-05-25T06:20:14.654Z,94.60
2019-05-25T06:20:55.532Z,94.90
2019-05-25T06:21:35.382Z,94.70
2019-05-25T06:22:14.038Z,94.70
2019-05-25T06:22:53.568Z,94.70
2019-05-25T06:23:33.062Z,94.50
2019-05-25T06:24:11.699Z,94.50
2019-05-25T06:24:51.456Z,94.50
2019-05-25T06:25:31.263Z,94.70
2019-05-25T06:26:10.475Z,94.60
2019-05-25T06:26:49.754Z,94.50
2019-05-25T06:27:28.958Z,94.70
2019-05-25T06:28:07.952Z,94.40
2019-05-25T06:28:47.544Z,94.70
2019-05-25T06:29:27.150Z,94.30
2019-05-25T06:30:05.995Z,94.50
2019-05-25T06:30:45.180Z,94.40
2019-05-25T06:31:24.397Z,94.40
2019-05-25T06:32:03.362Z,94.50
2019-05-25T06:32:42.659Z,94.40
2019-05-25T06:33:22.149Z,94.10
2019-05-25T06:34:01.102Z,94.30
2019-05-25T06:34:40.680Z,94.30
2019-05-25T06:35:20.149Z,94.50
2019-05-25T06:36:46.638Z,94.60
2019-05-25T06:37:26.380Z,94.40
2019-05-25T06:38:05.363Z,94.20
2019-05-25T06:38:45.054Z,94.20
2019-05-25T06:39:24.550Z,94.20
2019-05-25T06:40:21.528Z,94.20
2019-05-25T06:41:01.170Z,94.30
2019-05-25T06:41:41.244Z,94.20
2019-05-25T06:42:20.316Z,94.00
2019-05-25T06:43:00.196Z,94.00
2019-05-25T06:43:40.050Z,94.00
2019-05-25T06:44:18.979Z,93.90
2019-05-25T06:44:58.885Z,94.00
2019-05-25T06:45:38.459Z,93.80
2019-05-25T06:46:17.019Z,94.20
2019-05-25T06:46:57.189Z,94.00
2019-05-25T06:47:36.922Z,93.90
2019-05-25T06:48:15.502Z,93.90
2019-05-25T06:48:55.011Z,93.80
2019-05-25T06:49:34.555Z,94.00
2019-05-25T06:50:15.060Z,94.00
2019-05-25T06:50:54.515Z,93.40
2019-05-25T06:51:34.095Z,93.80
2019-05-25T06:52:13.268Z,93.70
2019-05-25T06:52:52.805Z,93.70
2019-05-25T06:53:32.531Z,93.70
2019-05-25T06:54:11.518Z,94.20
2019-05-25T06:54:51.124Z,93.70
2019-05-25T06:55:30.471Z,93.90
2019-05-25T06:56:09.159Z,93.50
2019-05-25T06:56:48.367Z,93.70
2019-05-25T06:57:42.020Z,93.60
2019-05-25T06:58:08.124Z,93.50
2019-05-25T06:58:47.496Z,93.20
2019-05-25T06:59:27.281Z,93.60
2019-05-25T07:00:06.480Z,93.50
2019-05-25T07:00:45.767Z,93.60
2019-05-25T07:01:25.412Z,93.50
2019-05-25T07:02:04.498Z,93.50
2019-05-25T07:02:44.064Z,93.50
2019-05-25T07:03:23.930Z,93.50
2019-05-25T07:04:03.163Z,93.50
2019-05-25T07:04:42.435Z,93.30
2019-05-25T07:05:21.987Z,93.40
2019-05-25T07:06:01.026Z,93.60
2019-05-25T07:06:40.607Z,93.30
2019-05-25T07:07:19.941Z,93.40
2019-05-25T07:07:58.767Z,93.50
2019-05-25T07:08:38.268Z,93.60
2019-05-25T07:09:17.390Z,93.50
2019-05-25T07:09:56.339Z,93.70
2019-05-25T07:10:35.978Z,93.20
2019-05-25T07:11:15.903Z,93.20
2019-05-25T07:11:54.899Z,93.30
2019-05-25T07:12:34.418Z,93.40
2019-05-25T07:13:20.196Z,93.40
2019-05-25T07:13:59.135Z,93.60
2019-05-25T07:14:38.926Z,93.30
2019-05-25T07:15:18.840Z,93.20
2019-05-25T07:15:58.243Z,93.40
2019-05-25T07:16:37.463Z,93.40
2019-05-25T07:17:17.363Z,93.40
2019-05-25T07:17:56.484Z,93.30
2019-05-25T07:18:36.087Z,93.20
2019-05-25T07:19:15.591Z,93.20
2019-05-25T07:19:54.451Z,93.20
2019-05-25T07:20:34.199Z,93.10
2019-05-25T07:21:13.880Z,93.10
2019-05-25T07:21:52.638Z,93.10
2019-05-25T07:22:32.331Z,93.10
2019-05-25T07:23:12.297Z,92.90
2019-05-25T07:23:50.996Z,93.40
2019-05-25T07:24:30.888Z,93.40
2019-05-25T07:25:10.352Z,93.50
2019-05-25T07:25:50.548Z,93.20
2019-05-25T07:26:30.281Z,93.20
2019-05-25T07:27:09.852Z,93.20
2019-05-25T07:27:58.769Z,93.00
2019-05-25T07:28:30.034Z,93.10
2019-05-25T07:29:09.604Z,93.10
2019-05-25T07:29:48.411Z,93.00
2019-05-25T07:30:28.067Z,93.00
2019-05-25T07:31:07.642Z,92.90
2019-05-25T07:31:46.669Z,92.90
2019-05-25T07:32:26.183Z,92.80
2019-05-25T07:33:06.064Z,92.90
2019-05-25T07:33:44.965Z,92.90
2019-05-25T07:34:24.803Z,92.90
2019-05-25T07:35:04.310Z,92.80
2019-05-25T07:35:43.509Z,92.90
2019-05-25T07:36:23.118Z,92.90
2019-05-25T07:37:02.844Z,92.90
2019-05-25T07:37:41.902Z,92.80
2019-05-25T07:38:20.843Z,92.80
2019-05-25T07:39:00.599Z,92.90
2019-05-25T07:39:40.030Z,92.90
2019-05-25T07:40:19.327Z,93.10
2019-05-25T07:40:58.707Z,92.80
2019-05-25T07:41:37.637Z,92.90
2019-05-25T07:42:19.865Z,92.60
2019-05-25T07:42:58.159Z,92.80
2019-05-25T07:43:37.808Z,92.80
2019-05-25T07:44:16.800Z,92.50
2019-05-25T07:44:56.254Z,92.80
2019-05-25T07:45:34.853Z,92.70
2019-05-25T07:46:17.108Z,92.80
2019-05-25T07:46:55.729Z,92.70
2019-05-25T07:47:35.015Z,92.70
2019-05-25T07:48:14.573Z,92.50
2019-05-25T07:48:54.103Z,92.50
2019-05-25T07:49:33.047Z,92.50
2019-05-25T07:50:12.558Z,92.50
2019-05-25T07:50:51.775Z,92.40
2019-05-25T07:51:30.589Z,92.50
2019-05-25T07:52:10.079Z,92.30
2019-05-25T07:52:49.500Z,92.50
2019-05-25T07:53:28.573Z,92.60
2019-05-25T07:54:07.950Z,92.50
2019-05-25T07:54:47.414Z,92.40
2019-05-25T07:55:26.336Z,92.30
2019-05-25T07:56:05.859Z,92.60
2019-05-25T07:56:45.355Z,92.20
2019-05-25T07:57:24.189Z,92.10
2019-05-25T07:58:16.711Z,92.10
2019-05-25T07:58:44.573Z,92.00
2019-05-25T07:59:23.436Z,92.00
2019-05-25T08:00:02.983Z,91.90
2019-05-25T08:00:42.911Z,92.00
2019-05-25T08:01:22.367Z,92.00
2019-05-25T08:02:01.888Z,92.10
2019-05-25T08:02:41.901Z,92.30
2019-05-25T08:03:20.927Z,92.30
2019-05-25T08:04:00.556Z,92.30
2019-05-25T08:04:40.190Z,92.20
2019-05-25T08:05:18.661Z,92.10
2019-05-25T08:05:58.381Z,92.10
2019-05-25T08:06:37.640Z,92.40
2019-05-25T08:07:16.542Z,92.00
2019-05-25T08:07:55.849Z,92.00
2019-05-25T08:08:35.398Z,92.10
2019-05-25T08:09:14.229Z,92.10
2019-05-25T08:09:53.815Z,92.40
2019-05-25T08:10:33.082Z,92.00
2019-05-25T08:11:11.647Z,91.90
2019-05-25T08:11:51.301Z,91.90
2019-05-25T08:12:30.564Z,92.00
2019-05-25T08:13:09.478Z,92.20
2019-05-25T08:13:49.098Z,92.20
2019-05-25T08:14:28.787Z,92.10
2019-05-25T08:15:07.511Z,92.00
2019-05-25T08:15:47.043Z,92.00
2019-05-25T08:16:26.467Z,92.00
2019-05-25T08:17:05.478Z,91.90
2019-05-25T08:17:45.319Z,91.80
2019-05-25T08:18:24.927Z,91.80
2019-05-25T08:19:04.084Z,91.80
2019-05-25T08:19:43.748Z,91.80
2019-05-25T08:20:23.308Z,91.80
2019-05-25T08:21:02.430Z,91.70
2019-05-25T08:21:41.800Z,91.70
2019-05-25T08:22:21.556Z,91.70
2019-05-25T08:23:00.706Z,91.60
2019-05-25T08:23:40.098Z,91.70
2019-05-25T08:24:19.332Z,91.70
2019-05-25T08:24:58.571Z,91.60
2019-05-25T08:25:38.370Z,91.60
2019-05-25T08:26:17.491Z,91.70
2019-05-25T08:26:56.569Z,91.70
2019-05-25T08:27:35.619Z,91.70
2019-05-25T08:28:31.283Z,91.50
2019-05-25T08:28:56.370Z,91.60
2019-05-25T08:29:35.742Z,91.60
2019-05-25T08:30:15.764Z,91.50
2019-05-25T08:30:54.559Z,91.60
2019-05-25T08:31:34.748Z,91.90
2019-05-25T08:32:14.071Z,91.60
2019-05-25T08:32:53.509Z,91.60
2019-05-25T08:33:33.261Z,91.50
2019-05-25T08:34:12.535Z,91.40
2019-05-25T08:34:50.959Z,91.40
2019-05-25T08:35:30.438Z,91.40